Time;durP1;ratioP1;P1;durP2;ratioP2;P2;SDS_P1;SDS_P2;PMS_P1;PMS_P2;Temp;Humidity;BMP_temperature;BMP_pressure;BME280_temperature;BME280_humidity;BME280_pressure;Samples;Min_cycle;Max_cycle;Signal;HPM_P1;HPM_P2
2021/05/24 04:00:30;;;;;;;7.05;6.55;;;9.50;99.90;;;;;;5878991;23;20274;-70
2021/05/24 04:02:56;;;;;;;7.07;6.10;;;9.50;99.90;;;;;;4935899;29;20210;-69
2021/05/24 04:05:26;;;;;;;5.90;5.55;;;9.60;99.90;;;;;;4936566;29;20902;-68
2021/05/24 04:07:54;;;;;;;5.90;5.60;;;9.60;99.90;;;;;;4936541;29;20670;-70
2021/05/24 04:10:23;;;;;;;8.73;5.20;;;9.60;99.90;;;;;;4938417;29;20354;-67
2021/05/24 04:12:49;;;;;;;5.63;5.32;;;9.60;99.90;;;;;;4952215;28;20522;-71
2021/05/24 04:15:17;;;;;;;6.47;5.43;;;9.70;99.90;;;;;;4955485;29;20217;-72
2021/05/24 04:17:45;;;;;;;6.30;5.97;;;9.70;99.90;;;;;;4953707;29;20209;-71
2021/05/24 04:20:13;;;;;;;5.43;5.03;;;9.70;99.90;;;;;;4946356;29;20212;-73
2021/05/24 04:22:40;;;;;;;4.28;4.00;;;9.80;99.90;;;;;;4944896;29;20563;-72
2021/05/24 04:25:08;;;;;;;5.22;4.75;;;9.90;99.90;;;;;;4948095;29;20305;-72
2021/05/24 04:27:34;;;;;;;4.03;3.90;;;10.50;99.90;;;;;;4956295;29;20595;-73
2021/05/24 04:30:00;;;;;;;4.30;4.18;;;11.50;99.90;;;;;;4950029;29;20210;-72
2021/05/24 04:32:27;;;;;;;3.60;3.40;;;12.40;99.90;;;;;;4940472;29;20233;-72
2021/05/24 04:34:53;;;;;;;3.87;3.77;;;13.00;99.90;;;;;;4947558;28;20480;-72
2021/05/24 04:37:20;;;;;;;4.27;3.97;;;13.70;99.90;;;;;;4946994;29;20461;-72
2021/05/24 04:39:46;;;;;;;3.60;3.40;;;14.10;99.90;;;;;;4938404;29;21205;-72
2021/05/24 04:42:13;;;;;;;3.50;3.30;;;14.30;99.90;;;;;;4946796;29;20491;-74
2021/05/24 04:44:39;;;;;;;3.33;3.23;;;14.50;99.90;;;;;;4953802;29;20516;-72
2021/05/24 04:47:06;;;;;;;3.40;3.30;;;14.50;99.90;;;;;;4945369;29;20468;-72
2021/05/24 04:49:32;;;;;;;3.50;3.20;;;14.50;99.90;;;;;;4955750;29;20464;-73
2021/05/24 04:51:59;;;;;;;3.50;3.40;;;14.80;99.90;;;;;;4937121;29;20822;-72
2021/05/24 04:54:26;;;;;;;2.70;2.60;;;15.10;99.90;;;;;;4936705;29;20490;-71
2021/05/24 04:56:52;;;;;;;3.10;3.10;;;15.40;99.90;;;;;;4935716;29;20470;-72
2021/05/24 04:59:18;;;;;;;3.47;3.30;;;15.50;99.90;;;;;;4935174;29;20477;-73
2021/05/24 05:01:47;;;;;;;3.00;2.80;;;15.70;99.90;;;;;;4932995;29;20489;-72
2021/05/24 05:04:13;;;;;;;4.93;2.97;;;15.80;99.90;;;;;;4942287;29;20462;-72
2021/05/24 05:06:39;;;;;;;2.80;2.70;;;16.20;99.90;;;;;;4941309;29;20573;-72
2021/05/24 05:09:06;;;;;;;2.43;2.43;;;16.50;99.90;;;;;;4939116;29;20457;-72
2021/05/24 05:11:32;;;;;;;2.30;2.30;;;16.60;99.90;;;;;;4947021;29;21021;-69
2021/05/24 05:13:59;;;;;;;2.50;2.40;;;16.60;99.90;;;;;;4942915;29;20982;-69
2021/05/24 05:16:25;;;;;;;2.10;2.00;;;16.80;99.90;;;;;;4936601;29;20517;-69
2021/05/24 05:18:52;;;;;;;1.60;1.60;;;17.00;99.90;;;;;;4946440;29;20461;-68
2021/05/24 05:21:18;;;;;;;2.57;2.57;;;17.00;99.90;;;;;;4939070;29;20489;-69
2021/05/24 05:23:44;;;;;;;2.10;2.00;;;17.30;99.90;;;;;;4952442;28;20476;-69
2021/05/24 05:26:11;;;;;;;2.13;2.03;;;17.80;99.90;;;;;;4935708;29;20452;-69
2021/05/24 05:28:39;;;;;;;1.90;1.80;;;18.10;99.90;;;;;;4954773;29;20479;-70
2021/05/24 05:31:05;;;;;;;1.97;1.77;;;17.80;99.90;;;;;;4948798;29;20562;-68
2021/05/24 05:33:31;;;;;;;1.60;1.60;;;17.70;99.90;;;;;;4953325;29;20802;-68
2021/05/24 05:35:58;;;;;;;1.50;1.50;;;17.70;99.90;;;;;;4932713;29;20462;-67
2021/05/24 05:38:25;;;;;;;1.93;1.83;;;17.70;99.90;;;;;;4928198;29;20509;-69
2021/05/24 05:40:52;;;;;;;1.60;1.60;;;17.40;99.90;;;;;;4918510;29;20481;-71
2021/05/24 05:43:20;;;;;;;1.40;1.40;;;17.40;99.90;;;;;;4934939;29;20939;-72
2021/05/24 05:45:47;;;;;;;1.70;1.70;;;17.10;99.90;;;;;;4946013;29;20461;-71
2021/05/24 05:48:13;;;;;;;1.70;1.60;;;16.80;99.90;;;;;;4928778;29;20472;-71
2021/05/24 05:50:39;;;;;;;1.60;1.60;;;16.70;99.90;;;;;;4953049;29;20484;-69
2021/05/24 05:53:05;;;;;;;1.60;1.60;;;16.70;99.90;;;;;;4953833;29;20562;-73
2021/05/24 05:55:32;;;;;;;2.23;1.40;;;17.10;99.90;;;;;;4954315;29;20839;-72
2021/05/24 05:57:58;;;;;;;1.23;1.23;;;17.40;99.90;;;;;;4935935;29;20464;-71
2021/05/24 06:00:26;;;;;;;1.83;1.73;;;17.60;99.90;;;;;;4929626;29;20478;-72
2021/05/24 06:02:52;;;;;;;1.20;1.20;;;17.90;99.90;;;;;;4936288;29;20515;-71
2021/05/24 06:05:18;;;;;;;1.43;1.33;;;18.60;99.90;;;;;;4933877;29;20512;-72
2021/05/24 06:07:44;;;;;;;1.30;1.30;;;19.00;99.90;;;;;;4934942;29;20485;-71
2021/05/24 06:10:13;;;;;;;1.57;1.47;;;19.00;99.90;;;;;;4942116;29;20462;-72
2021/05/24 06:12:40;;;;;;;1.63;1.50;;;19.30;99.90;;;;;;4944587;29;20461;-72
2021/05/24 06:15:07;;;;;;;1.00;1.00;;;19.80;99.90;;;;;;4951872;28;20471;-72
2021/05/24 06:17:35;;;;;;;1.13;1.13;;;20.40;99.90;;;;;;4932240;29;20463;-72
2021/05/24 06:20:01;;;;;;;1.13;1.13;;;20.70;98.90;;;;;;4940697;29;20515;-72
2021/05/24 06:22:27;;;;;;;1.27;1.10;;;20.60;97.40;;;;;;4953571;29;21027;-73
2021/05/24 06:24:53;;;;;;;1.27;1.20;;;20.30;98.70;;;;;;4948766;29;20461;-73
2021/05/24 06:27:19;;;;;;;1.10;1.10;;;20.30;98.90;;;;;;4952478;29;20487;-72
2021/05/24 06:29:46;;;;;;;1.30;1.30;;;20.80;98.30;;;;;;4941866;29;20772;-68
2021/05/24 06:32:12;;;;;;;1.33;1.00;;;21.20;96.90;;;;;;4934732;29;20493;-71
2021/05/24 06:34:39;;;;;;;1.10;1.10;;;20.70;96.50;;;;;;4933716;29;20470;-72
2021/05/24 06:37:05;;;;;;;1.20;1.10;;;20.90;97.60;;;;;;4938084;29;20469;-72
2021/05/24 06:39:31;;;;;;;0.90;0.90;;;21.20;97.20;;;;;;4945767;29;20477;-69
2021/05/24 06:41:57;;;;;;;1.00;1.00;;;21.20;96.60;;;;;;4946895;29;20497;-69
2021/05/24 06:44:23;;;;;;;4.17;1.10;;;21.10;96.10;;;;;;4936887;29;20616;-68
2021/05/24 06:46:50;;;;;;;0.90;0.90;;;21.70;96.70;;;;;;4934855;29;20465;-69
2021/05/24 06:49:16;;;;;;;1.10;1.10;;;22.00;95.90;;;;;;4938243;29;20466;-69
2021/05/24 06:51:43;;;;;;;0.90;0.90;;;22.50;94.50;;;;;;4936472;29;20498;-68
2021/05/24 06:54:10;;;;;;;2.73;1.73;;;21.90;93.30;;;;;;4941134;29;20458;-69
2021/05/24 06:56:36;;;;;;;0.70;0.70;;;21.80;94.00;;;;;;4937457;29;20463;-68
2021/05/24 06:59:03;;;;;;;1.00;1.00;;;21.20;94.30;;;;;;4936789;29;20467;-68
2021/05/24 07:01:29;;;;;;;0.93;0.93;;;21.10;95.10;;;;;;4937306;29;20497;-69
2021/05/24 07:03:55;;;;;;;0.87;0.87;;;21.40;94.50;;;;;;4947901;29;20480;-68
2021/05/24 07:06:22;;;;;;;1.23;1.13;;;21.40;94.50;;;;;;4951280;29;20473;-68
2021/05/24 07:08:49;;;;;;;1.00;0.90;;;21.70;94.60;;;;;;4949981;29;20466;-68
2021/05/24 07:11:15;;;;;;;0.90;0.90;;;21.80;94.70;;;;;;4932016;29;20573;-67
2021/05/24 07:13:41;;;;;;;1.17;0.90;;;22.00;94.20;;;;;;4954780;29;20594;-68
2021/05/24 07:16:08;;;;;;;0.70;0.70;;;22.10;93.40;;;;;;4953886;29;20482;-68
2021/05/24 07:18:34;;;;;;;0.67;0.67;;;22.20;93.00;;;;;;4957249;29;20484;-69
2021/05/24 07:21:00;;;;;;;3.23;0.80;;;21.90;92.70;;;;;;4946155;29;20485;-69
2021/05/24 07:23:26;;;;;;;0.87;0.87;;;21.70;93.40;;;;;;4928989;29;20473;-69
2021/05/24 07:25:53;;;;;;;0.80;0.80;;;22.10;93.30;;;;;;4939417;29;20469;-68
2021/05/24 07:28:20;;;;;;;0.87;0.83;;;22.40;93.10;;;;;;4918843;29;20474;-68
2021/05/24 07:30:46;;;;;;;1.40;1.20;;;22.60;92.70;;;;;;4937207;29;20489;-67
2021/05/24 07:33:12;;;;;;;0.60;0.60;;;22.60;91.50;;;;;;4953102;29;20526;-67
2021/05/24 07:35:38;;;;;;;0.50;0.50;;;22.60;91.40;;;;;;4953313;29;20817;-68
2021/05/24 07:38:05;;;;;;;1.07;0.60;;;22.70;91.00;;;;;;4946744;29;20560;-68
2021/05/24 07:40:31;;;;;;;0.80;0.80;;;22.60;90.30;;;;;;4931100;29;20513;-68
2021/05/24 07:42:58;;;;;;;0.60;0.60;;;22.70;91.10;;;;;;4921904;29;20476;-68
2021/05/24 07:45:24;;;;;;;0.67;0.67;;;22.80;90.80;;;;;;4940501;28;20555;-70
2021/05/24 07:47:51;;;;;;;0.60;0.60;;;23.10;90.40;;;;;;4949498;29;20480;-67
2021/05/24 07:50:17;;;;;;;1.03;1.03;;;22.70;90.30;;;;;;4939957;29;20533;-67
2021/05/24 07:52:43;;;;;;;0.87;0.87;;;23.10;90.20;;;;;;4936593;29;20465;-68
2021/05/24 07:55:10;;;;;;;0.60;0.60;;;23.00;88.00;;;;;;4950925;29;20487;-67
2021/05/24 07:57:38;;;;;;;0.70;0.70;;;23.00;88.40;;;;;;4927485;28;20471;-68
2021/05/24 08:00:08;;;;;;;1.67;0.70;;;22.90;87.50;;;;;;4939696;29;20493;-67
2021/05/24 08:02:38;;;;;;;1.70;0.67;;;22.40;87.40;;;;;;4943715;28;20487;-67
2021/05/24 08:05:07;;;;;;;1.17;0.80;;;22.50;89.60;;;;;;4936236;29;20538;-67
2021/05/24 08:07:33;;;;;;;0.40;0.40;;;22.60;90.00;;;;;;4955397;29;20477;-67
2021/05/24 08:09:59;;;;;;;1.93;0.80;;;22.70;88.40;;;;;;4945295;29;20529;-68
2021/05/24 08:12:26;;;;;;;0.80;0.80;;;22.50;88.30;;;;;;4932434;29;20998;-68
2021/05/24 08:14:53;;;;;;;2.57;0.80;;;22.00;87.80;;;;;;4932194;29;20482;-69
2021/05/24 08:17:20;;;;;;;0.60;0.60;;;22.00;87.10;;;;;;4932395;29;20465;-68
2021/05/24 08:19:46;;;;;;;1.87;0.80;;;22.00;86.80;;;;;;4928571;29;20499;-69
2021/05/24 08:22:13;;;;;;;1.43;0.80;;;21.80;88.60;;;;;;4930217;29;20486;-68
2021/05/24 08:24:40;;;;;;;0.70;0.70;;;21.80;90.20;;;;;;4928184;29;20461;-69
2021/05/24 08:27:06;;;;;;;1.33;0.80;;;22.00;89.30;;;;;;4933657;28;20616;-68
2021/05/24 08:29:33;;;;;;;0.63;0.57;;;21.70;88.80;;;;;;4918325;29;20522;-69
2021/05/24 08:31:59;;;;;;;0.93;0.93;;;21.50;88.80;;;;;;4928826;29;20490;-69
2021/05/24 08:34:26;;;;;;;1.13;0.70;;;21.40;90.10;;;;;;4933020;29;20467;-70
2021/05/24 08:36:53;;;;;;;0.60;0.60;;;21.20;88.50;;;;;;4939470;29;20461;-69
2021/05/24 08:39:19;;;;;;;0.80;0.80;;;20.60;89.30;;;;;;4928016;29;20505;-68
2021/05/24 08:41:46;;;;;;;0.73;0.73;;;20.50;89.90;;;;;;4929149;29;20496;-69
2021/05/24 08:44:14;;;;;;;0.63;0.63;;;20.50;90.00;;;;;;4948469;29;20828;-71
2021/05/24 08:46:41;;;;;;;1.03;0.63;;;20.70;90.20;;;;;;4940202;29;20465;-74
2021/05/24 08:49:07;;;;;;;0.80;0.80;;;20.70;90.80;;;;;;4933979;29;20467;-73
2021/05/24 08:51:34;;;;;;;0.67;0.67;;;20.50;90.50;;;;;;4951301;29;20488;-73
2021/05/24 08:54:02;;;;;;;0.80;0.80;;;20.10;91.60;;;;;;4926228;29;20832;-71
2021/05/24 08:56:28;;;;;;;1.40;1.30;;;20.00;91.40;;;;;;4946402;29;20477;-73
2021/05/24 08:58:58;;;;;;;0.60;0.60;;;20.10;91.70;;;;;;4916049;29;20473;-73
2021/05/24 09:01:24;;;;;;;0.93;0.90;;;20.10;91.50;;;;;;4924514;29;20516;-74
2021/05/24 09:03:57;;;;;;;0.80;0.80;;;20.30;91.70;;;;;;4916875;29;20482;-74
2021/05/24 09:06:35;;;;;;;2.10;1.00;;;20.30;91.90;;;;;;4935536;29;20520;-73
2021/05/24 09:09:10;;;;;;;0.77;0.70;;;20.20;91.40;;;;;;4951600;29;20872;-74
2021/05/24 09:11:37;;;;;;;0.50;0.50;;;20.00;91.00;;;;;;4940440;29;20501;-73
2021/05/24 09:14:12;;;;;;;0.80;0.80;;;19.90;91.00;;;;;;4950292;29;20471;-73
2021/05/24 09:16:39;;;;;;;0.60;0.60;;;19.70;91.40;;;;;;4934553;29;20472;-74
2021/05/24 09:19:14;;;;;;;0.77;0.50;;;19.60;91.60;;;;;;4944493;29;20856;-73
2021/05/24 09:21:50;;;;;;;0.43;0.43;;;19.60;91.40;;;;;;4935940;29;20489;-74
2021/05/24 09:24:22;;;;;;;0.70;0.57;;;19.90;90.70;;;;;;4935421;29;20473;-74
2021/05/24 09:26:49;;;;;;;1.90;0.57;;;20.00;89.30;;;;;;4935958;29;20620;-73
2021/05/24 09:29:16;;;;;;;2.10;0.70;;;20.00;90.00;;;;;;4935201;29;20469;-69
2021/05/24 09:31:43;;;;;;;0.70;0.70;;;20.20;90.20;;;;;;4936036;29;21278;-68
2021/05/24 09:34:09;;;;;;;2.97;0.47;;;20.40;90.30;;;;;;4939037;29;20983;-68
2021/05/24 09:36:36;;;;;;;0.73;0.73;;;20.50;88.80;;;;;;4935673;29;20834;-69
2021/05/24 09:39:07;;;;;;;0.60;0.40;;;20.40;87.30;;;;;;4938172;29;20898;-68
2021/05/24 09:41:41;;;;;;;0.40;0.40;;;20.40;87.80;;;;;;4935575;29;20493;-68
2021/05/24 09:44:07;;;;;;;1.43;0.70;;;20.30;86.90;;;;;;4921488;29;20926;-69
2021/05/24 09:46:33;;;;;;;0.60;0.60;;;20.20;88.00;;;;;;4920785;29;20469;-67
2021/05/24 09:49:02;;;;;;;0.70;0.70;;;20.20;88.40;;;;;;4932397;29;20477;-67
2021/05/24 09:51:30;;;;;;;0.87;0.83;;;20.30;88.30;;;;;;4933128;29;20481;-70
2021/05/24 09:54:02;;;;;;;0.53;0.53;;;20.30;87.30;;;;;;4930448;29;20468;-68
2021/05/24 09:56:31;;;;;;;1.23;1.00;;;20.50;88.00;;;;;;4951839;29;20503;-69
2021/05/24 09:59:03;;;;;;;3.40;1.30;;;20.60;88.40;;;;;;4934970;29;21245;-67
2021/05/24 10:01:35;;;;;;;0.57;0.57;;;20.70;88.80;;;;;;4918109;29;20970;-69
2021/05/24 10:04:01;;;;;;;0.40;0.40;;;20.80;89.20;;;;;;4924407;29;20538;-68
2021/05/24 10:06:27;;;;;;;0.60;0.60;;;20.90;86.00;;;;;;4923749;29;20465;-68
2021/05/24 10:08:55;;;;;;;1.53;0.57;;;20.90;86.40;;;;;;4944697;28;20460;-68
2021/05/24 10:11:22;;;;;;;0.60;0.60;;;21.00;87.00;;;;;;4939308;29;20504;-68
2021/05/24 10:13:49;;;;;;;0.70;0.50;;;21.10;86.20;;;;;;4936224;29;20463;-68
2021/05/24 10:16:17;;;;;;;0.67;0.50;;;21.00;84.00;;;;;;4919050;29;20472;-68
2021/05/24 10:18:43;;;;;;;1.17;0.53;;;21.00;82.00;;;;;;4948657;29;20463;-69
2021/05/24 10:21:09;;;;;;;0.60;0.60;;;20.80;81.90;;;;;;4940692;29;20955;-69
2021/05/24 10:23:36;;;;;;;1.03;0.80;;;20.80;82.60;;;;;;4936206;29;20458;-69
2021/05/24 10:26:06;;;;;;;0.50;0.50;;;20.80;82.60;;;;;;4938339;29;20466;-69
2021/05/24 10:28:33;;;;;;;1.33;0.80;;;20.70;81.80;;;;;;4934990;29;20468;-68
2021/05/24 10:31:02;;;;;;;0.70;0.70;;;20.60;83.60;;;;;;4945944;29;20481;-68
2021/05/24 10:33:40;;;;;;;0.60;0.60;;;20.40;85.00;;;;;;4942609;29;20540;-68
2021/05/24 10:36:29;;;;;;;0.60;0.60;;;20.10;85.20;;;;;;4944102;29;20507;-69
2021/05/24 10:39:08;;;;;;;0.70;0.70;;;20.10;87.20;;;;;;4936941;29;20468;-73
2021/05/24 10:41:46;;;;;;;0.60;0.60;;;20.00;86.70;;;;;;4949596;29;20510;-73
2021/05/24 10:44:13;;;;;;;0.80;0.80;;;20.00;87.30;;;;;;4937258;29;20457;-74
2021/05/24 10:46:40;;;;;;;0.70;0.70;;;20.20;88.10;;;;;;4945471;29;20464;-74
2021/05/24 10:49:26;;;;;;;1.70;0.60;;;20.30;87.30;;;;;;4938354;29;20469;-74
2021/05/24 10:52:04;;;;;;;0.87;0.87;;;20.30;86.60;;;;;;4940702;29;20487;-75
2021/05/24 10:54:36;;;;;;;0.97;0.60;;;20.20;85.30;;;;;;4921137;29;20537;-74
2021/05/24 10:57:14;;;;;;;0.50;0.50;;;20.30;87.00;;;;;;4951676;29;20516;-74
2021/05/24 10:59:49;;;;;;;1.17;0.50;;;20.60;87.10;;;;;;4952695;29;20550;-74
2021/05/24 11:02:24;;;;;;;0.47;0.47;;;20.80;84.80;;;;;;4933087;29;20488;-73
2021/05/24 11:04:52;;;;;;;0.83;0.67;;;21.00;83.50;;;;;;4935814;29;21015;-74
2021/05/24 11:07:23;;;;;;;0.93;0.60;;;21.20;83.10;;;;;;4928721;29;20458;-73
2021/05/24 11:09:49;;;;;;;2.23;0.70;;;21.30;81.30;;;;;;4930361;29;20898;-72
2021/05/24 11:12:28;;;;;;;0.70;0.70;;;21.20;80.30;;;;;;4951157;29;20516;-72
2021/05/24 11:15:09;;;;;;;0.60;0.60;;;21.20;78.80;;;;;;4947639;29;20509;-72
2021/05/24 11:18:12;;;;;;;1.03;0.60;;;21.10;78.50;;;;;;4956059;29;20491;-68
2021/05/24 11:20:40;;;;;;;0.50;0.50;;;21.10;79.30;;;;;;4922126;29;21083;-68
2021/05/24 11:23:18;;;;;;;1.73;0.40;;;21.00;78.30;;;;;;4956385;29;20465;-68
2021/05/24 11:25:55;;;;;;;1.03;0.80;;;20.90;78.50;;;;;;4930144;29;20472;-68
2021/05/24 11:28:33;;;;;;;0.80;0.70;;;21.10;79.90;;;;;;4936824;29;20500;-68
2021/05/24 11:31:13;;;;;;;0.50;0.50;;;21.40;80.30;;;;;;4937073;29;20519;-68
2021/05/24 11:33:45;;;;;;;0.87;0.83;;;21.50;75.60;;;;;;4937368;29;20465;-68
2021/05/24 11:36:13;;;;;;;0.90;0.90;;;21.50;77.70;;;;;;4941691;28;20476;-68
2021/05/24 11:38:39;;;;;;;0.60;0.60;;;21.30;75.30;;;;;;4954210;28;20521;-68
2021/05/24 11:41:11;;;;;;;2.17;0.43;;;21.50;75.80;;;;;;4926853;29;20484;-68
2021/05/24 11:43:39;;;;;;;0.80;0.80;;;21.70;74.10;;;;;;4928882;29;20525;-71
2021/05/24 11:46:06;;;;;;;0.70;0.70;;;21.70;75.30;;;;;;4936858;29;20520;-69
2021/05/24 11:48:37;;;;;;;0.90;0.90;;;21.80;74.80;;;;;;4948974;28;20470;-68
2021/05/24 11:51:05;;;;;;;0.60;0.60;;;21.60;76.20;;;;;;4938578;29;20482;-68
2021/05/24 11:53:33;;;;;;;0.97;0.80;;;21.60;77.40;;;;;;4938441;29;20462;-68
2021/05/24 11:56:07;;;;;;;0.50;0.50;;;21.60;74.70;;;;;;4944662;29;20465;-68
2021/05/24 11:58:53;;;;;;;0.80;0.53;;;21.50;75.10;;;;;;4930308;29;20462;-68
2021/05/24 12:01:19;;;;;;;0.90;0.90;;;21.70;77.20;;;;;;4929854;29;20497;-68
2021/05/24 12:03:49;;;;;;;0.60;0.60;;;21.70;74.20;;;;;;4923290;29;20462;-69
2021/05/24 12:06:17;;;;;;;0.40;0.40;;;21.70;75.30;;;;;;4928625;29;20493;-69
2021/05/24 12:08:45;;;;;;;1.77;0.43;;;21.70;75.20;;;;;;4936251;29;20488;-68
2021/05/24 12:11:13;;;;;;;0.50;0.50;;;21.80;71.80;;;;;;4936936;29;20488;-68
2021/05/24 12:14:03;;;;;;;0.50;0.50;;;21.90;73.40;;;;;;4936548;29;20465;-70
2021/05/24 12:16:30;;;;;;;0.47;0.47;;;22.10;70.40;;;;;;4931210;29;20469;-68
2021/05/24 12:18:59;;;;;;;0.63;0.63;;;22.00;66.90;;;;;;4920944;29;20466;-68
2021/05/24 12:21:40;;;;;;;0.73;0.60;;;22.00;70.30;;;;;;4941565;28;20490;-68
2021/05/24 12:24:09;;;;;;;0.93;0.63;;;22.20;71.00;;;;;;4934965;29;20500;-72
2021/05/24 12:26:36;;;;;;;0.90;0.90;;;22.20;71.10;;;;;;4943611;29;20464;-72
2021/05/24 12:29:04;;;;;;;0.53;0.53;;;22.00;69.40;;;;;;4938176;29;20466;-73
2021/05/24 12:31:31;;;;;;;1.10;0.60;;;22.10;68.80;;;;;;4930993;29;20483;-74
2021/05/24 12:33:58;;;;;;;0.70;0.70;;;22.20;67.70;;;;;;4932922;29;20461;-73
2021/05/24 12:36:33;;;;;;;0.70;0.70;;;22.40;67.80;;;;;;4937858;29;20462;-74
2021/05/24 12:39:04;;;;;;;0.70;0.60;;;22.40;66.20;;;;;;4921739;29;20476;-73
2021/05/24 12:41:32;;;;;;;0.40;0.40;;;22.30;64.90;;;;;;4933541;29;20490;-73
2021/05/24 12:44:02;;;;;;;0.93;0.50;;;22.30;63.40;;;;;;4936315;29;20569;-74
2021/05/24 12:46:30;;;;;;;0.63;0.63;;;22.30;65.10;;;;;;4937627;29;20524;-74
2021/05/24 12:48:58;;;;;;;0.90;0.90;;;22.40;62.70;;;;;;4934081;29;20950;-72
2021/05/24 12:51:28;;;;;;;0.70;0.60;;;22.50;64.70;;;;;;4935756;29;20509;-67
2021/05/24 12:53:58;;;;;;;0.57;0.57;;;22.60;64.20;;;;;;4931468;29;20466;-69
2021/05/24 12:56:38;;;;;;;1.13;0.63;;;22.30;62.20;;;;;;4925003;29;20521;-68
2021/05/24 12:59:13;;;;;;;0.73;0.50;;;22.00;63.70;;;;;;4930896;29;20834;-73
2021/05/24 13:01:40;;;;;;;1.80;1.70;;;22.10;65.60;;;;;;4936526;29;20496;-72
2021/05/24 13:04:07;;;;;;;1.87;0.70;;;22.10;64.00;;;;;;4933047;29;20941;-72
2021/05/24 13:06:35;;;;;;;0.63;0.60;;;22.20;64.10;;;;;;4932741;29;20465;-71
2021/05/24 13:09:02;;;;;;;0.40;0.40;;;22.20;63.30;;;;;;4942080;29;20462;-73
2021/05/24 13:11:32;;;;;;;3.33;0.83;;;22.40;64.20;;;;;;4935155;29;20481;-74
2021/05/24 13:14:00;;;;;;;2.80;0.90;;;22.50;62.90;;;;;;4941762;29;20980;-71
2021/05/24 13:16:29;;;;;;;2.03;0.73;;;22.60;63.00;;;;;;4934743;29;20482;-71
2021/05/24 13:19:23;;;;;;;0.40;0.40;;;22.60;62.80;;;;;;4942116;29;20466;-71
2021/05/24 13:30:46;;;;;;;0.90;0.90;;;22.40;63.50;;;;;;4931304;29;20691;-72
2021/05/24 13:33:33;;;;;;;0.67;0.60;;;22.40;64.20;;;;;;4927479;29;20466;-70
2021/05/24 13:36:01;;;;;;;2.60;0.60;;;22.50;62.10;;;;;;4928072;29;20474;-72
2021/05/24 13:38:28;;;;;;;1.00;1.00;;;22.40;62.00;;;;;;4936918;29;20534;-72
2021/05/24 13:40:55;;;;;;;1.30;0.60;;;22.50;63.00;;;;;;4934556;29;20482;-72
2021/05/24 13:43:22;;;;;;;0.80;0.80;;;22.50;62.40;;;;;;4935931;29;20831;-72
2021/05/24 13:45:49;;;;;;;0.60;0.60;;;22.30;60.50;;;;;;4935096;29;20465;-71
2021/05/24 13:48:15;;;;;;;0.80;0.80;;;22.30;59.50;;;;;;4934993;29;20528;-72
2021/05/24 13:50:41;;;;;;;0.70;0.70;;;22.30;61.10;;;;;;4934983;29;20847;-71
2021/05/24 13:53:07;;;;;;;0.43;0.43;;;22.30;61.00;;;;;;4934867;29;20836;-71
2021/05/24 13:55:34;;;;;;;0.63;0.63;;;22.40;61.40;;;;;;4935599;29;20461;-71
2021/05/24 13:58:00;;;;;;;0.70;0.70;;;22.30;61.30;;;;;;4934588;29;20470;-71
2021/05/24 14:00:30;;;;;;;0.97;0.60;;;22.10;61.80;;;;;;4933601;29;20569;-71
2021/05/24 14:02:58;;;;;;;0.90;0.90;;;22.00;61.10;;;;;;4934583;29;20553;-71
2021/05/24 14:05:24;;;;;;;1.20;1.20;;;21.90;60.70;;;;;;4928244;29;20466;-70
2021/05/24 14:07:50;;;;;;;0.90;0.90;;;22.00;60.60;;;;;;4919902;29;20458;-72
2021/05/24 14:10:17;;;;;;;0.70;0.47;;;22.10;59.70;;;;;;4934369;29;20955;-72
2021/05/24 14:12:44;;;;;;;0.40;0.40;;;22.20;60.60;;;;;;4934231;29;20461;-71
2021/05/24 14:15:10;;;;;;;0.60;0.60;;;22.30;60.60;;;;;;4934029;29;20469;-71
2021/05/24 14:17:38;;;;;;;0.70;0.70;;;22.30;60.40;;;;;;4934909;29;20465;-71
2021/05/24 14:20:07;;;;;;;0.60;0.60;;;22.40;61.10;;;;;;4934294;29;20466;-69
2021/05/24 14:22:34;;;;;;;0.53;0.53;;;22.50;60.70;;;;;;4933576;29;20880;-71
2021/05/24 14:25:00;;;;;;;0.63;0.60;;;22.30;60.70;;;;;;4934371;29;20882;-67
2021/05/24 14:27:26;;;;;;;0.67;0.63;;;22.20;61.90;;;;;;4934333;29;20540;-67
2021/05/24 14:29:52;;;;;;;0.60;0.60;;;22.10;61.80;;;;;;4934069;29;20470;-67
2021/05/24 14:32:18;;;;;;;0.43;0.43;;;21.90;62.00;;;;;;4933944;29;20497;-68
2021/05/24 14:34:45;;;;;;;1.73;0.50;;;21.80;62.30;;;;;;4934533;29;20469;-68
2021/05/24 14:37:12;;;;;;;0.60;0.60;;;21.80;63.30;;;;;;4930452;29;20518;-67
2021/05/24 14:39:39;;;;;;;0.60;0.60;;;21.70;62.90;;;;;;4915862;29;20502;-67
2021/05/24 14:42:05;;;;;;;1.30;0.60;;;21.60;61.60;;;;;;4915077;29;20490;-68
2021/05/24 14:44:31;;;;;;;1.03;0.80;;;21.60;63.20;;;;;;4915153;29;20824;-67
2021/05/24 14:46:57;;;;;;;0.70;0.70;;;21.60;63.90;;;;;;4929337;29;20497;-67
2021/05/24 14:49:24;;;;;;;0.57;0.57;;;21.50;63.50;;;;;;4934604;29;20826;-71
2021/05/24 14:51:53;;;;;;;1.27;0.93;;;21.60;63.70;;;;;;4934116;29;20485;-71
2021/05/24 14:54:19;;;;;;;0.90;0.90;;;21.60;64.30;;;;;;4932402;29;20517;-70
2021/05/24 14:56:45;;;;;;;0.87;0.70;;;21.60;64.70;;;;;;4936240;29;20466;-71
2021/05/24 14:59:11;;;;;;;1.50;0.40;;;21.50;64.10;;;;;;4937673;29;20493;-70
2021/05/24 15:01:38;;;;;;;0.73;0.40;;;21.80;64.60;;;;;;4937190;29;20496;-71
2021/05/24 15:04:05;;;;;;;0.47;0.47;;;22.00;64.10;;;;;;4937773;29;20520;-71
2021/05/24 15:06:32;;;;;;;0.50;0.50;;;22.20;63.70;;;;;;4937730;29;20480;-71
2021/05/24 15:08:59;;;;;;;1.43;0.60;;;22.30;64.00;;;;;;4937611;29;20482;-70
2021/05/24 15:11:25;;;;;;;0.73;0.73;;;22.30;62.40;;;;;;4936078;29;20505;-71
2021/05/24 15:13:51;;;;;;;0.40;0.40;;;22.30;63.70;;;;;;4937082;29;20469;-71
2021/05/24 15:16:17;;;;;;;0.57;0.50;;;22.30;63.20;;;;;;4937248;29;20473;-71
2021/05/24 15:18:44;;;;;;;0.83;0.50;;;22.30;63.90;;;;;;4937698;29;20930;-71
2021/05/24 15:21:10;;;;;;;1.20;1.10;;;22.20;61.10;;;;;;4937268;29;20482;-71
2021/05/24 15:23:37;;;;;;;0.77;0.60;;;22.00;63.50;;;;;;4937117;29;20901;-71
2021/05/24 15:26:04;;;;;;;0.70;0.70;;;21.90;63.30;;;;;;4937613;29;20465;-71
2021/05/24 15:28:33;;;;;;;0.60;0.60;;;21.90;65.10;;;;;;4920307;29;20788;-71
2021/05/24 15:30:59;;;;;;;1.23;0.50;;;22.20;64.20;;;;;;4917301;29;20624;-71
2021/05/24 15:33:28;;;;;;;1.90;0.60;;;22.20;64.60;;;;;;4917980;29;20466;-70
2021/05/24 15:35:54;;;;;;;0.57;0.57;;;22.30;64.40;;;;;;4917947;29;20896;-71
2021/05/24 15:38:20;;;;;;;0.80;0.80;;;22.30;64.30;;;;;;4917805;29;20545;-71
2021/05/24 15:40:47;;;;;;;0.70;0.70;;;22.30;64.40;;;;;;4918181;29;20494;-71
2021/05/24 15:43:15;;;;;;;0.70;0.70;;;22.20;64.70;;;;;;4918962;29;20485;-70
2021/05/24 15:45:42;;;;;;;0.67;0.67;;;22.20;63.70;;;;;;4917105;29;20525;-71
2021/05/24 15:48:09;;;;;;;0.40;0.40;;;22.00;64.10;;;;;;4918461;29;20462;-70
2021/05/24 15:50:36;;;;;;;0.60;0.60;;;21.90;64.40;;;;;;4936626;29;20485;-68
2021/05/24 15:53:03;;;;;;;1.07;0.67;;;21.90;63.10;;;;;;4936266;29;20457;-68
2021/05/24 15:55:32;;;;;;;0.97;0.80;;;22.00;63.30;;;;;;4939769;29;20473;-68
2021/05/24 15:57:58;;;;;;;0.77;0.77;;;21.80;62.00;;;;;;4934384;29;20470;-67
2021/05/24 16:00:25;;;;;;;1.10;1.00;;;21.70;62.60;;;;;;4920927;29;20784;-68
2021/05/24 16:02:52;;;;;;;0.77;0.73;;;21.60;63.10;;;;;;4951545;29;20544;-68
2021/05/24 16:05:18;;;;;;;1.00;1.00;;;21.40;63.80;;;;;;4935388;29;20462;-67
2021/05/24 16:07:45;;;;;;;1.00;1.00;;;21.40;64.80;;;;;;4917519;29;20470;-68
2021/05/24 16:10:12;;;;;;;1.40;0.60;;;21.40;63.60;;;;;;4931159;28;20482;-68
2021/05/24 16:12:38;;;;;;;0.60;0.60;;;21.20;61.80;;;;;;4935314;29;20473;-67
2021/05/24 16:15:06;;;;;;;1.20;0.60;;;21.20;61.60;;;;;;4946629;29;20465;-68
2021/05/24 16:17:34;;;;;;;0.70;0.70;;;21.10;62.50;;;;;;4938310;28;20469;-68
2021/05/24 16:20:01;;;;;;;1.40;1.00;;;21.10;61.80;;;;;;4946000;29;20515;-68
2021/05/24 16:22:28;;;;;;;0.73;0.73;;;21.10;63.40;;;;;;4938705;29;20505;-68
2021/05/24 16:25:02;;;;;;;2.50;1.10;;;21.00;62.20;;;;;;4948900;28;20612;-68
2021/05/24 16:27:29;;;;;;;4.40;4.20;;;21.00;62.50;;;;;;4937832;28;20460;-68
2021/05/24 16:29:56;;;;;;;2.47;2.27;;;21.10;64.00;;;;;;4941081;29;20473;-68
2021/05/24 16:32:22;;;;;;;4.23;3.93;;;21.10;65.00;;;;;;4921470;29;20899;-70
2021/05/24 16:34:49;;;;;;;1.30;1.30;;;21.10;66.60;;;;;;4934375;29;20481;-67
2021/05/24 16:37:17;;;;;;;0.80;0.80;;;20.90;68.80;;;;;;4935092;29;20477;-68
2021/05/24 16:39:43;;;;;;;0.87;0.87;;;20.90;67.10;;;;;;4930098;29;20960;-68
2021/05/24 16:42:09;;;;;;;0.60;0.60;;;20.80;67.20;;;;;;4916212;29;20482;-68
2021/05/24 16:44:35;;;;;;;1.10;1.10;;;20.80;65.50;;;;;;4929023;29;20508;-68
2021/05/24 16:47:02;;;;;;;1.50;0.80;;;20.70;68.70;;;;;;4920949;29;20480;-68
2021/05/24 16:49:28;;;;;;;1.27;1.20;;;20.70;68.60;;;;;;4939249;29;20474;-68
2021/05/24 16:51:55;;;;;;;1.70;1.60;;;20.70;68.80;;;;;;4921871;29;20823;-68
2021/05/24 16:54:21;;;;;;;1.10;1.10;;;20.80;70.00;;;;;;4932697;29;20477;-68
2021/05/24 16:56:48;;;;;;;0.67;0.67;;;20.70;70.30;;;;;;4916662;29;20499;-68
2021/05/24 16:59:16;;;;;;;2.10;0.80;;;20.70;72.30;;;;;;4921459;29;20522;-68
2021/05/24 17:01:42;;;;;;;1.67;1.67;;;20.70;70.10;;;;;;4920593;29;20501;-69